Time;durP1;ratioP1;P1;durP2;ratioP2;P2;SDS_P1;SDS_P2;PMS_P1;PMS_P2;Temp;Humidity;BMP_temperature;BMP_pressure;BME280_temperature;BME280_humidity;BME280_pressure;Samples;Min_cycle;Max_cycle;Signal;HPM_P1;HPM_P2
2022/02/08 00:01:02;;;;;;;6.45;1.65;;;7.90;99.90;;;;;;20859072;28;20052;-45
2022/02/08 00:11:04;;;;;;;4.55;1.10;;;8.10;99.90;;;;;;20870889;28;20069;-46
2022/02/08 00:21:08;;;;;;;9.30;1.20;;;8.20;99.90;;;;;;20862988;28;20056;-45
2022/02/08 00:31:09;;;;;;;8.52;1.58;;;8.20;99.90;;;;;;20850649;28;20049;-45
2022/02/08 00:41:10;;;;;;;7.93;1.10;;;8.30;99.90;;;;;;20858832;28;20037;-45
2022/02/08 00:51:11;;;;;;;4.95;1.48;;;8.30;99.90;;;;;;20861728;28;20135;-46
2022/02/08 01:01:12;;;;;;;7.13;1.33;;;8.30;99.90;;;;;;20867060;28;20068;-45
2022/02/08 01:11:13;;;;;;;10.47;0.90;;;8.30;99.90;;;;;;20861203;28;20143;-46
2022/02/08 01:21:14;;;;;;;5.70;2.08;;;8.40;99.90;;;;;;20851878;28;20311;-46
2022/02/08 01:31:16;;;;;;;8.50;1.73;;;8.40;99.90;;;;;;20866675;28;20062;-46
2022/02/08 01:41:49;;;;;;;7.22;1.50;;;8.50;99.90;;;;;;20859961;28;20691;-46
2022/02/08 01:51:53;;;;;;;8.18;1.45;;;8.60;99.90;;;;;;20879436;28;20041;-46
2022/02/08 02:01:55;;;;;;;8.45;1.40;;;8.60;99.90;;;;;;20852086;28;20057;-46
2022/02/08 02:11:57;;;;;;;4.85;1.45;;;8.70;99.90;;;;;;20862173;28;20041;-46
2022/02/08 02:22:00;;;;;;;7.53;1.90;;;8.90;99.90;;;;;;20842043;28;20048;-46
2022/02/08 02:32:02;;;;;;;7.18;2.28;;;9.00;99.90;;;;;;20845864;28;20078;-46
2022/02/08 02:42:10;;;;;;;6.45;2.22;;;9.00;99.90;;;;;;20848047;28;20036;-46
2022/02/08 02:52:10;;;;;;;7.03;2.28;;;8.80;99.90;;;;;;20835760;28;20152;-46
2022/02/08 03:22:34;;;;;;;2.33;0.95;;;9.30;99.90;;;;;;20862824;28;20041;-46
2022/02/08 03:32:35;;;;;;;6.43;1.95;;;9.50;99.90;;;;;;20856800;28;20044;-46
2022/02/08 03:42:40;;;;;;;8.10;2.03;;;9.60;99.90;;;;;;20865226;28;20668;-46
2022/02/08 03:52:40;;;;;;;4.30;1.08;;;9.60;99.90;;;;;;20849375;28;20045;-46
2022/02/08 04:02:46;;;;;;;5.13;1.30;;;9.60;99.90;;;;;;20758470;28;20053;-46
2022/02/08 04:13:57;;;;;;;5.43;1.20;;;9.70;99.90;;;;;;20775403;28;20524;-46
2022/02/08 05:45:30;;;;;;;4.53;0.95;;;9.70;99.90;;;;;;20884041;28;20484;-46
2022/02/08 05:55:35;;;;;;;4.43;0.65;;;9.70;99.90;;;;;;20880915;28;20072;-46
2022/02/08 06:05:37;;;;;;;7.25;1.10;;;9.70;99.90;;;;;;20874573;28;20049;-45
2022/02/08 06:15:39;;;;;;;2.15;0.60;;;9.80;99.90;;;;;;20867297;28;20056;-46
2022/02/08 06:25:40;;;;;;;9.55;2.13;;;9.70;99.90;;;;;;20878797;28;20068;-46
2022/02/08 06:35:42;;;;;;;5.95;1.27;;;9.70;99.90;;;;;;20891850;28;20153;-45
2022/02/08 06:45:42;;;;;;;5.07;1.55;;;9.80;99.90;;;;;;20876084;28;20040;-46
2022/02/08 06:55:44;;;;;;;4.30;1.20;;;9.90;99.90;;;;;;20867589;28;20102;-45
2022/02/08 07:05:45;;;;;;;6.47;1.42;;;10.00;99.90;;;;;;20866815;28;20044;-46
2022/02/08 07:15:45;;;;;;;4.10;0.60;;;9.90;99.90;;;;;;20860949;28;20062;-45
2022/02/08 07:25:46;;;;;;;3.58;0.70;;;9.90;99.90;;;;;;20864392;28;20345;-46
2022/02/08 07:35:58;;;;;;;1.73;0.80;;;9.90;99.90;;;;;;20861027;28;20199;-45
2022/02/08 07:45:59;;;;;;;4.72;0.88;;;9.90;99.90;;;;;;20858696;28;20291;-45
2022/02/08 07:55:59;;;;;;;2.80;0.90;;;9.90;99.90;;;;;;20873557;28;20482;-46
2022/02/08 08:06:01;;;;;;;4.53;0.50;;;9.90;99.90;;;;;;20867235;28;20413;-47
2022/02/08 08:16:13;;;;;;;6.28;0.63;;;10.00;99.90;;;;;;20866516;28;20315;-45
2022/02/08 08:26:14;;;;;;;2.40;0.57;;;10.00;99.90;;;;;;20860271;28;20037;-45
2022/02/08 08:36:19;;;;;;;1.40;0.32;;;10.10;99.90;;;;;;20852349;28;20496;-45
2022/02/08 08:56:42;;;;;;;4.80;0.50;;;10.10;99.90;;;;;;20836744;28;20044;-45
2022/02/08 09:06:44;;;;;;;1.52;0.28;;;10.20;99.90;;;;;;20836719;28;20045;-45
2022/02/08 09:16:52;;;;;;;1.48;0.30;;;10.40;99.90;;;;;;20851034;28;20044;-45
2022/02/08 09:27:23;;;;;;;5.57;0.35;;;10.50;99.90;;;;;;20853941;28;20044;-46
2022/02/08 09:37:24;;;;;;;4.53;0.63;;;10.60;99.90;;;;;;20824454;28;20482;-45
2022/02/08 09:48:02;;;;;;;2.03;0.23;;;10.70;99.90;;;;;;20851247;28;20578;-46
2022/02/08 09:57:52;;;;;;;7.70;1.33;;;10.80;99.90;;;;;;20851704;28;20357;-45
2022/02/08 10:07:53;;;;;;;8.43;0.60;;;10.90;99.90;;;;;;20851183;28;20045;-45
2022/02/08 10:28:18;;;;;;;3.20;0.43;;;11.20;99.90;;;;;;20860920;28;20493;-45
2022/02/08 10:38:19;;;;;;;3.33;0.28;;;11.40;99.90;;;;;;20857399;28;20055;-45
2022/02/08 10:48:23;;;;;;;2.58;0.40;;;11.40;99.90;;;;;;20860524;28;20037;-45
2022/02/08 10:58:30;;;;;;;2.30;0.57;;;11.70;99.90;;;;;;20857880;28;20212;-45
2022/02/08 11:19:55;;;;;;;1.37;0.53;;;11.90;99.90;;;;;;20867685;28;20045;-45
2022/02/08 11:29:43;;;;;;;3.28;0.20;;;12.10;99.90;;;;;;20862107;28;20869;-45
2022/02/08 11:50:22;;;;;;;2.00;0.10;;;13.10;99.90;;;;;;20885236;28;20106;-45
2022/02/08 12:00:35;;;;;;;2.50;0.25;;;13.00;99.90;;;;;;20890793;28;20050;-45
2022/02/08 12:10:46;;;;;;;4.03;0.52;;;12.80;99.90;;;;;;20883515;28;20056;-45
2022/02/08 14:01:38;;;;;;;4.75;0.65;;;11.90;99.90;;;;;;20885419;28;20045;-45
2022/02/08 14:24:20;;;;;;;1.73;0.30;;;12.20;99.90;;;;;;20850643;28;20429;-46
2022/02/08 15:05:53;;;;;;;2.17;0.85;;;11.70;99.90;;;;;;20861813;28;20029;-45
2022/02/08 15:16:07;;;;;;;0.88;0.43;;;11.70;99.90;;;;;;20843185;28;20879;-46
2022/02/08 15:25:57;;;;;;;6.73;0.80;;;11.70;99.90;;;;;;20840204;28;20541;-45
2022/02/08 15:35:58;;;;;;;1.92;1.05;;;12.00;99.90;;;;;;20845573;28;20124;-45
2022/02/08 15:46:09;;;;;;;2.90;0.13;;;11.80;99.90;;;;;;20856607;28;20245;-45
2022/02/08 16:26:44;;;;;;;2.13;0.50;;;11.30;99.90;;;;;;20855941;28;20029;-45
2022/02/08 17:07:38;;;;;;;4.03;0.82;;;10.90;99.90;;;;;;20858790;28;20315;-45
2022/02/08 17:48:35;;;;;;;1.20;0.45;;;10.60;99.90;;;;;;20866930;28;20120;-45
2022/02/08 17:58:38;;;;;;;1.52;0.40;;;10.60;99.90;;;;;;20850703;28;20040;-45
2022/02/08 18:08:41;;;;;;;4.57;1.15;;;10.50;99.90;;;;;;20855683;28;20776;-45
2022/02/08 18:18:44;;;;;;;2.85;0.70;;;10.40;99.90;;;;;;20851085;28;20052;-45
2022/02/08 19:09:53;;;;;;;5.68;0.50;;;9.70;99.90;;;;;;20854648;28;20041;-45
2022/02/08 19:19:59;;;;;;;1.73;0.63;;;9.70;99.90;;;;;;20839326;28;20606;-45
2022/02/08 19:29:59;;;;;;;1.77;0.40;;;9.70;99.90;;;;;;20864656;28;20837;-45
2022/02/08 19:40:00;;;;;;;3.42;1.00;;;9.60;99.90;;;;;;20837016;28;20412;-45
2022/02/08 19:50:03;;;;;;;2.40;1.30;;;9.60;99.90;;;;;;20869917;28;20496;-45
2022/02/08 20:00:09;;;;;;;5.75;0.85;;;9.60;99.90;;;;;;20857170;28;20046;-45
2022/02/08 20:10:12;;;;;;;3.30;0.60;;;9.50;99.90;;;;;;20854751;28;21686;-45
2022/02/08 20:20:15;;;;;;;1.05;0.40;;;9.60;99.90;;;;;;20852115;28;20203;-45
2022/02/08 20:30:20;;;;;;;6.80;0.80;;;9.60;99.90;;;;;;20872438;28;20049;-45
2022/02/08 20:40:21;;;;;;;0.70;0.30;;;9.70;99.90;;;;;;20851736;28;20410;-45
2022/02/08 20:50:25;;;;;;;3.15;0.80;;;9.70;99.90;;;;;;20871596;28;20049;-46
2022/02/08 21:00:25;;;;;;;3.50;0.68;;;9.70;99.90;;;;;;20869481;28;20585;-45
2022/02/08 21:10:27;;;;;;;2.10;0.53;;;9.70;99.90;;;;;;20841620;28;20080;-45
2022/02/08 21:20:27;;;;;;;4.45;0.70;;;9.70;99.90;;;;;;20865829;28;20276;-45
2022/02/08 22:00:51;;;;;;;1.75;0.98;;;9.70;99.90;;;;;;20803379;28;20110;-45
2022/02/08 22:31:06;;;;;;;2.85;0.63;;;9.70;99.90;;;;;;20762487;28;20054;-46
2022/02/08 22:41:14;;;;;;;3.95;0.60;;;9.60;99.90;;;;;;20747407;28;20033;-45
2022/02/08 22:51:15;;;;;;;4.65;1.10;;;9.70;99.90;;;;;;20753978;28;20136;-45
2022/02/08 23:01:16;;;;;;;4.32;0.98;;;9.70;99.90;;;;;;20821251;28;20037;-45
2022/02/08 23:11:46;;;;;;;3.72;1.05;;;9.60;99.90;;;;;;20840438;28;20048;-45
2022/02/08 23:42:20;;;;;;;2.22;0.95;;;9.60;99.90;;;;;;20831140;28;20044;-45
2022/02/08 23:52:32;;;;;;;4.10;0.70;;;9.60;99.90;;;;;;20840870;28;20114;-45
